Time;durP1;ratioP1;P1;durP2;ratioP2;P2;SDS_P1;SDS_P2;PMS_P1;PMS_P2;Temp;Humidity;BMP_temperature;BMP_pressure;BME280_temperature;BME280_humidity;BME280_pressure;Samples;Min_cycle;Max_cycle;Signal;HPM_P1;HPM_P2
2022/10/04 00:00:39;;;;;;;18.90;9.23;;;13.30;99.90;;;;;;5005076;28;20046;-78
2022/10/04 00:03:28;;;;;;;14.50;9.48;;;13.20;99.90;;;;;;5026868;28;20634;-78
2022/10/04 00:05:57;;;;;;;15.30;9.00;;;13.20;99.90;;;;;;5005699;28;20124;-78
2022/10/04 00:08:26;;;;;;;18.10;9.55;;;13.20;99.90;;;;;;5025862;28;20049;-78
2022/10/04 00:11:23;;;;;;;15.52;8.95;;;13.20;99.90;;;;;;5023398;28;20099;-78
2022/10/04 00:13:53;;;;;;;18.90;9.20;;;13.20;99.90;;;;;;4999514;28;20053;-78
2022/10/04 00:16:30;;;;;;;19.75;9.63;;;13.20;99.90;;;;;;5024840;28;20110;-78
2022/10/04 00:19:14;;;;;;;16.67;10.02;;;13.20;99.90;;;;;;5006237;28;20054;-78
2022/10/04 00:21:55;;;;;;;21.65;10.05;;;13.20;99.90;;;;;;5005108;28;20126;-78
2022/10/04 00:24:29;;;;;;;15.57;9.30;;;13.20;99.90;;;;;;5025919;28;20481;-78
2022/10/04 00:27:22;;;;;;;18.08;10.15;;;13.10;99.90;;;;;;5028498;28;20060;-78
2022/10/04 00:30:00;;;;;;;18.50;10.38;;;13.10;99.90;;;;;;5014845;28;20041;-78
2022/10/04 00:32:38;;;;;;;17.20;9.75;;;13.10;99.90;;;;;;5020262;28;20438;-78
2022/10/04 00:35:24;;;;;;;16.30;10.25;;;13.10;99.90;;;;;;5023352;28;20045;-78
2022/10/04 00:38:05;;;;;;;16.70;10.18;;;13.10;99.90;;;;;;5009347;28;20045;-77
2022/10/04 00:40:42;;;;;;;15.80;9.80;;;13.00;99.90;;;;;;5024211;28;20049;-77
2022/10/04 00:43:36;;;;;;;20.23;10.30;;;13.00;99.90;;;;;;5024748;28;20041;-77
2022/10/04 00:46:14;;;;;;;17.30;10.18;;;13.00;99.90;;;;;;5021348;28;20060;-77
2022/10/04 00:48:46;;;;;;;20.02;9.98;;;13.00;99.90;;;;;;5024879;28;20045;-77
2022/10/04 00:51:37;;;;;;;21.02;11.43;;;13.00;99.90;;;;;;5007350;28;20416;-77
2022/10/04 00:54:11;;;;;;;20.77;10.27;;;13.00;99.90;;;;;;4995007;28;20060;-77
2022/10/04 00:56:54;;;;;;;14.90;10.65;;;13.00;99.90;;;;;;5025313;28;20041;-76
2022/10/04 00:59:29;;;;;;;18.33;10.65;;;13.00;99.90;;;;;;5005809;28;20053;-75
2022/10/04 01:02:25;;;;;;;19.88;11.15;;;13.10;99.90;;;;;;5025742;28;20041;-77
2022/10/04 01:04:56;;;;;;;16.05;11.13;;;13.00;99.90;;;;;;5010530;28;20049;-77
2022/10/04 01:07:35;;;;;;;17.35;11.18;;;12.90;99.90;;;;;;4987299;28;20046;-77
2022/10/04 01:10:12;;;;;;;17.48;11.50;;;12.90;99.90;;;;;;5015065;28;20058;-77
2022/10/04 01:12:45;;;;;;;15.63;11.48;;;12.90;99.90;;;;;;5014917;28;20062;-76
2022/10/04 01:15:37;;;;;;;16.77;11.93;;;12.90;99.90;;;;;;4993088;28;20073;-76
2022/10/04 01:18:15;;;;;;;17.52;12.07;;;12.90;99.90;;;;;;5025492;28;20057;-77
2022/10/04 01:21:04;;;;;;;20.08;11.65;;;13.00;99.90;;;;;;5023191;28;20056;-77
2022/10/04 01:23:45;;;;;;;21.42;12.20;;;12.90;99.90;;;;;;5026271;28;20046;-77
2022/10/04 01:26:29;;;;;;;21.25;12.00;;;12.90;99.90;;;;;;5024432;28;20604;-76
2022/10/04 01:29:00;;;;;;;17.58;11.35;;;12.90;99.90;;;;;;5020955;28;20584;-76
2022/10/04 01:31:28;;;;;;;18.63;11.40;;;12.90;99.90;;;;;;5019186;28;20044;-76
2022/10/04 01:33:54;;;;;;;18.30;11.63;;;12.80;99.90;;;;;;5025778;28;20436;-76
2022/10/04 01:36:20;;;;;;;15.97;11.57;;;12.80;99.90;;;;;;5025136;28;20132;-77
2022/10/04 01:38:47;;;;;;;17.55;11.60;;;12.80;99.90;;;;;;5016993;28;20366;-77
2022/10/04 01:41:17;;;;;;;17.37;11.43;;;12.80;99.90;;;;;;5010404;28;20042;-77
2022/10/04 01:43:47;;;;;;;19.00;10.88;;;12.70;99.90;;;;;;5005399;28;20092;-77
2022/10/04 01:46:19;;;;;;;16.33;10.63;;;12.80;99.90;;;;;;5018073;28;20087;-77
2022/10/04 01:48:45;;;;;;;15.90;10.38;;;12.80;99.90;;;;;;5031056;28;20177;-78
2022/10/04 01:51:22;;;;;;;17.77;10.50;;;12.80;99.90;;;;;;5007410;28;20049;-77
2022/10/04 01:54:00;;;;;;;18.73;10.87;;;12.70;99.90;;;;;;5029511;28;20045;-77
2022/10/04 01:56:32;;;;;;;17.80;10.65;;;12.80;99.90;;;;;;5028868;28;20053;-77
2022/10/04 01:59:03;;;;;;;16.98;10.90;;;12.70;99.90;;;;;;5015436;28;20048;-77
2022/10/04 02:01:33;;;;;;;18.90;10.82;;;12.70;99.90;;;;;;5012295;28;20041;-77
2022/10/04 02:04:08;;;;;;;16.27;10.80;;;12.70;99.90;;;;;;5023208;28;20593;-78
2022/10/04 02:06:37;;;;;;;16.25;10.60;;;12.80;99.90;;;;;;5007297;28;20049;-77
2022/10/04 02:09:13;;;;;;;19.15;11.32;;;12.70;99.90;;;;;;5027635;28;20038;-78
2022/10/04 02:11:41;;;;;;;20.67;10.60;;;12.70;99.90;;;;;;5010881;28;20049;-77
2022/10/04 02:14:17;;;;;;;20.48;10.73;;;12.70;99.90;;;;;;5024899;28;20056;-77
2022/10/04 02:16:45;;;;;;;18.65;9.75;;;12.70;99.90;;;;;;5006848;28;20037;-80
2022/10/04 02:19:12;;;;;;;18.33;10.45;;;12.70;99.90;;;;;;5009652;28;20109;-79
2022/10/04 02:21:38;;;;;;;18.23;10.75;;;12.70;99.90;;;;;;5021805;28;20435;-79
2022/10/04 02:24:06;;;;;;;18.50;10.32;;;12.80;99.90;;;;;;5010693;28;20143;-79
2022/10/04 02:26:31;;;;;;;20.38;10.25;;;12.80;99.90;;;;;;5028264;28;20041;-79
2022/10/04 02:28:57;;;;;;;24.38;10.68;;;12.80;99.90;;;;;;5006871;28;20043;-79
2022/10/04 02:34:09;;;;;;;17.90;10.15;;;12.80;99.90;;;;;;5025004;28;20544;-79
2022/10/04 02:36:35;;;;;;;15.80;9.95;;;12.80;99.90;;;;;;5023957;28;20046;-79
2022/10/04 02:39:12;;;;;;;22.60;9.70;;;12.80;99.90;;;;;;5027577;28;20074;-79
2022/10/04 02:41:44;;;;;;;22.00;10.15;;;12.80;99.90;;;;;;5011663;28;20385;-78
2022/10/04 02:44:33;;;;;;;21.60;9.70;;;12.80;99.90;;;;;;5003752;28;20045;-78
2022/10/04 02:47:15;;;;;;;17.83;9.90;;;12.80;99.90;;;;;;5013176;28;20057;-78
2022/10/04 02:49:48;;;;;;;21.00;9.50;;;12.80;99.90;;;;;;5008352;28;20053;-78
2022/10/04 02:52:21;;;;;;;17.73;9.25;;;12.80;99.90;;;;;;5029093;28;20120;-78
2022/10/04 02:55:08;;;;;;;18.55;9.52;;;12.80;99.90;;;;;;5010199;28;20080;-78
2022/10/04 02:57:34;;;;;;;21.45;10.35;;;12.80;99.90;;;;;;5012586;28;20045;-78
2022/10/04 03:00:03;;;;;;;20.48;9.98;;;12.70;99.90;;;;;;5031416;28;20045;-78
2022/10/04 03:02:30;;;;;;;21.45;9.85;;;12.80;99.90;;;;;;5025656;28;20418;-78
2022/10/04 03:05:00;;;;;;;18.23;10.07;;;12.80;99.90;;;;;;5010284;28;20080;-79
2022/10/04 03:07:26;;;;;;;19.60;12.38;;;12.70;99.90;;;;;;5012624;28;20050;-79
2022/10/04 03:09:52;;;;;;;22.27;13.10;;;12.70;99.90;;;;;;5031011;28;20046;-78
2022/10/04 03:12:21;;;;;;;21.48;14.00;;;12.70;99.90;;;;;;5027676;28;20413;-78
2022/10/04 03:14:46;;;;;;;18.58;11.77;;;12.80;99.90;;;;;;5028238;28;20116;-79
2022/10/04 03:17:14;;;;;;;20.67;12.27;;;12.70;99.90;;;;;;5030125;28;20079;-79
2022/10/04 03:19:41;;;;;;;17.45;11.57;;;12.70;99.90;;;;;;5028432;28;20511;-79
2022/10/04 03:22:09;;;;;;;18.98;11.20;;;12.70;99.90;;;;;;5009899;28;20654;-79
2022/10/04 03:24:48;;;;;;;18.38;10.55;;;12.70;99.90;;;;;;5030905;28;20205;-79
2022/10/04 03:27:26;;;;;;;15.45;9.80;;;12.60;99.90;;;;;;5010404;28;20033;-79
2022/10/04 03:29:54;;;;;;;19.05;10.70;;;12.70;99.90;;;;;;5031441;28;20045;-79
2022/10/04 03:32:21;;;;;;;15.90;10.93;;;12.50;99.90;;;;;;5029208;28;20128;-79
2022/10/04 03:34:58;;;;;;;16.38;11.05;;;12.50;99.90;;;;;;5031053;28;20743;-79
2022/10/04 03:37:27;;;;;;;20.55;10.93;;;12.50;99.90;;;;;;5031753;28;20100;-79
2022/10/04 03:39:54;;;;;;;19.25;11.23;;;12.50;99.90;;;;;;5027081;28;20472;-79
2022/10/04 03:42:24;;;;;;;19.38;12.32;;;12.50;99.90;;;;;;5014191;28;20483;-79
2022/10/04 03:44:54;;;;;;;25.42;15.38;;;12.50;99.90;;;;;;5032488;28;20064;-79
2022/10/04 03:47:32;;;;;;;21.83;15.75;;;12.50;99.90;;;;;;5022769;28;20117;-79
2022/10/04 03:50:03;;;;;;;19.88;16.45;;;12.50;99.90;;;;;;5024337;28;20045;-79
2022/10/04 03:52:36;;;;;;;23.30;16.88;;;12.50;99.90;;;;;;5011127;28;20045;-79
2022/10/04 03:55:05;;;;;;;26.88;16.77;;;12.50;99.90;;;;;;5029823;28;20052;-79
2022/10/04 03:57:33;;;;;;;23.77;16.63;;;12.50;99.90;;;;;;5014234;28;20084;-78
2022/10/04 04:00:00;;;;;;;28.27;16.42;;;12.40;99.90;;;;;;5029802;28;20041;-79
2022/10/04 04:02:38;;;;;;;18.63;14.23;;;12.40;99.90;;;;;;5027767;28;20099;-79
2022/10/04 04:05:19;;;;;;;22.73;13.60;;;12.40;99.90;;;;;;5008811;28;20053;-77
2022/10/04 04:08:05;;;;;;;20.88;13.80;;;12.40;99.90;;;;;;5026943;28;20042;-80
2022/10/04 04:10:35;;;;;;;20.73;13.38;;;12.40;99.90;;;;;;5011720;28;20516;-79
2022/10/04 04:13:09;;;;;;;17.73;13.10;;;12.40;99.90;;;;;;5024279;28;20049;-79
2022/10/04 04:15:36;;;;;;;19.35;13.93;;;12.40;99.90;;;;;;5027446;28;20050;-80
2022/10/04 04:18:06;;;;;;;22.63;14.15;;;12.30;99.90;;;;;;5009492;28;20053;-80
2022/10/04 04:20:37;;;;;;;19.58;12.90;;;12.40;99.90;;;;;;5030396;28;20140;-79
2022/10/04 04:23:36;;;;;;;21.00;14.30;;;12.30;99.90;;;;;;5028361;28;20034;-80
2022/10/04 04:26:14;;;;;;;20.35;13.65;;;12.30;99.90;;;;;;5013695;28;20545;-79
2022/10/04 04:29:09;;;;;;;17.52;13.40;;;12.30;99.90;;;;;;5031436;28;20046;-78
2022/10/04 04:31:42;;;;;;;20.73;14.35;;;12.20;99.90;;;;;;5005713;28;20054;-78
2022/10/04 04:34:24;;;;;;;23.52;15.02;;;12.20;99.90;;;;;;5027238;28;20053;-78
2022/10/04 04:36:51;;;;;;;19.27;13.60;;;12.20;99.90;;;;;;5028771;28;20049;-79
2022/10/04 04:39:36;;;;;;;22.08;14.98;;;12.20;99.90;;;;;;5029099;28;20492;-80
2022/10/04 04:42:20;;;;;;;25.90;15.60;;;12.10;99.90;;;;;;5030983;28;20064;-80
2022/10/04 04:45:05;;;;;;;24.50;16.25;;;12.10;99.90;;;;;;5013359;28;20045;-80
2022/10/04 04:47:49;;;;;;;19.63;15.30;;;12.10;99.90;;;;;;5014506;28;20045;-79
2022/10/04 04:50:47;;;;;;;19.23;15.18;;;12.10;99.90;;;;;;5025859;28;20041;-79
2022/10/04 04:53:26;;;;;;;22.00;14.95;;;12.10;99.90;;;;;;5006869;28;20076;-78
2022/10/04 04:55:58;;;;;;;19.70;15.85;;;12.10;99.90;;;;;;5023918;28;20076;-79
2022/10/04 04:58:28;;;;;;;19.88;16.30;;;12.10;99.90;;;;;;5022991;28;20085;-79
2022/10/04 05:01:07;;;;;;;23.63;17.30;;;12.10;99.90;;;;;;5015684;28;20048;-79
2022/10/04 05:03:33;;;;;;;27.98;20.70;;;12.10;99.90;;;;;;5017519;28;20692;-79
2022/10/04 05:06:03;;;;;;;36.90;25.90;;;12.10;99.90;;;;;;5007109;28;20474;-79
2022/10/04 05:08:34;;;;;;;55.40;41.15;;;12.10;99.90;;;;;;5026539;28;20091;-79
2022/10/04 05:11:15;;;;;;;91.47;62.20;;;12.10;99.90;;;;;;5022532;28;20393;-79
2022/10/04 05:13:52;;;;;;;118.07;83.18;;;12.10;99.90;;;;;;5001976;28;20049;-80
2022/10/04 05:16:27;;;;;;;146.60;97.05;;;12.10;99.90;;;;;;5027583;28;20084;-79
2022/10/04 05:18:59;;;;;;;138.65;87.38;;;12.00;99.90;;;;;;5018941;28;20037;-79
2022/10/04 05:21:28;;;;;;;118.35;71.03;;;12.10;99.90;;;;;;5010539;28;20045;-80
2022/10/04 05:23:57;;;;;;;90.60;53.95;;;12.00;99.90;;;;;;5029354;28;20042;-79
2022/10/04 05:26:27;;;;;;;81.93;46.80;;;12.00;99.90;;;;;;5006393;28;20079;-79
2022/10/04 05:28:58;;;;;;;69.72;39.72;;;11.90;99.90;;;;;;5028313;28;20603;-79
2022/10/04 05:31:34;;;;;;;65.05;40.28;;;11.90;99.90;;;;;;5006794;28;20041;-79
2022/10/04 05:34:00;;;;;;;73.13;41.33;;;11.90;99.90;;;;;;5027386;28;20037;-79
2022/10/04 05:36:37;;;;;;;57.38;36.78;;;11.90;99.90;;;;;;5027982;28;20099;-79
2022/10/04 05:39:26;;;;;;;54.40;36.20;;;11.90;99.90;;;;;;5012132;28;20056;-77
2022/10/04 05:42:06;;;;;;;56.95;37.63;;;11.90;99.90;;;;;;5025833;28;20089;-79
2022/10/04 05:44:36;;;;;;;54.50;37.95;;;11.80;99.90;;;;;;5008141;28;20541;-80
2022/10/04 05:47:06;;;;;;;67.75;42.50;;;11.80;99.90;;;;;;5026929;28;20046;-80
2022/10/04 05:49:43;;;;;;;79.80;50.72;;;11.80;99.90;;;;;;5024101;28;20057;-80
2022/10/04 05:52:15;;;;;;;73.50;50.67;;;11.80;99.90;;;;;;5012257;28;20056;-79
2022/10/04 05:54:41;;;;;;;66.93;46.22;;;11.80;99.90;;;;;;5006826;28;20057;-81
2022/10/04 05:57:26;;;;;;;64.47;41.47;;;11.70;99.90;;;;;;5021066;28;20124;-80
2022/10/04 05:59:55;;;;;;;42.00;28.95;;;11.70;99.90;;;;;;5021542;28;20572;-80
2022/10/04 06:03:11;;;;;;;37.83;24.52;;;11.70;99.90;;;;;;5027613;28;20060;-80
2022/10/04 06:05:59;;;;;;;33.17;22.40;;;11.70;99.90;;;;;;5029895;28;20045;-81
2022/10/04 06:08:44;;;;;;;28.70;18.85;;;11.70;99.90;;;;;;5003830;28;20053;-81
2022/10/04 06:11:33;;;;;;;24.67;18.92;;;11.60;99.90;;;;;;5008672;28;20580;-80
2022/10/04 06:14:23;;;;;;;26.15;18.30;;;11.60;99.90;;;;;;5013543;28;20061;-80
2022/10/04 06:17:14;;;;;;;27.27;19.55;;;11.60;99.90;;;;;;5023184;28;20045;-80
2022/10/04 06:20:17;;;;;;;26.48;19.67;;;11.60;99.90;;;;;;5025043;28;20045;-80
2022/10/04 06:22:47;;;;;;;24.38;17.88;;;11.60;99.90;;;;;;5017342;28;20069;-80
2022/10/04 06:25:31;;;;;;;20.80;17.67;;;11.60;99.90;;;;;;5002241;28;20543;-80
2022/10/04 06:28:17;;;;;;;23.27;17.88;;;11.70;99.90;;;;;;5026840;28;20056;-81
2022/10/04 06:31:17;;;;;;;23.63;17.77;;;11.50;99.90;;;;;;5005510;28;20050;-79
2022/10/04 06:33:46;;;;;;;24.05;17.65;;;11.60;99.90;;;;;;5000995;28;20061;-80
2022/10/04 06:36:54;;;;;;;24.13;17.58;;;11.70;99.90;;;;;;5025001;28;20041;-79
2022/10/04 06:39:35;;;;;;;21.55;18.17;;;11.70;99.90;;;;;;5011405;28;20037;-80
2022/10/04 06:42:10;;;;;;;24.42;19.98;;;11.70;99.90;;;;;;5028478;28;20132;-80
2022/10/04 06:45:14;;;;;;;32.05;23.23;;;11.70;99.90;;;;;;5016235;28;20483;-81
2022/10/04 06:47:59;;;;;;;31.38;22.35;;;11.70;99.90;;;;;;5009850;28;20046;-79
2022/10/04 06:50:44;;;;;;;34.90;22.92;;;11.70;99.90;;;;;;5002503;28;20045;-80
2022/10/04 06:53:31;;;;;;;32.08;22.38;;;11.80;99.90;;;;;;5031302;28;20124;-78
2022/10/04 06:56:24;;;;;;;30.55;20.30;;;11.80;99.90;;;;;;5022331;28;20103;-78
2022/10/04 06:58:53;;;;;;;29.20;19.33;;;11.80;99.90;;;;;;5003785;28;20057;-80
2022/10/04 07:01:28;;;;;;;26.83;18.30;;;11.80;99.90;;;;;;5022106;28;20120;-78
2022/10/04 07:04:11;;;;;;;24.25;17.60;;;11.80;99.90;;;;;;5016904;28;20180;-83
2022/10/04 07:06:46;;;;;;;21.10;16.95;;;11.90;99.90;;;;;;5017461;28;20049;-74
2022/10/04 07:09:30;;;;;;;22.50;17.35;;;11.90;99.90;;;;;;5030695;28;20427;-78
2022/10/04 07:12:08;;;;;;;22.52;16.83;;;12.00;99.90;;;;;;5019399;28;20141;-77
2022/10/04 07:14:38;;;;;;;23.80;17.50;;;12.00;99.90;;;;;;5010868;28;20049;-74
2022/10/04 07:17:11;;;;;;;26.52;17.75;;;12.00;99.90;;;;;;5010259;28;20056;-74
2022/10/04 07:19:55;;;;;;;22.83;16.92;;;12.00;99.90;;;;;;5009988;28;20192;-76
2022/10/04 07:22:33;;;;;;;21.15;16.92;;;12.00;99.90;;;;;;5005913;28;20485;-77
2022/10/04 07:25:10;;;;;;;20.00;15.93;;;12.10;99.90;;;;;;5022936;28;20053;-76
2022/10/04 07:31:13;;;;;;;21.35;16.35;;;12.20;99.90;;;;;;5002657;28;20041;-76
2022/10/04 07:33:49;;;;;;;21.15;16.20;;;12.30;99.90;;;;;;5027158;28;20049;-78
2022/10/04 07:36:25;;;;;;;20.42;15.52;;;12.40;99.90;;;;;;5020572;28;20072;-76
2022/10/04 07:38:58;;;;;;;22.40;16.67;;;12.50;99.90;;;;;;5024452;28;20049;-87
2022/10/04 07:41:34;;;;;;;23.80;15.90;;;12.60;99.90;;;;;;5027171;28;20129;-76
2022/10/04 07:44:14;;;;;;;23.58;15.93;;;12.50;99.90;;;;;;5007164;28;20087;-75
2022/10/04 07:47:16;;;;;;;20.42;14.82;;;12.70;99.90;;;;;;5029945;28;20492;-77
2022/10/04 07:49:45;;;;;;;20.55;14.90;;;12.70;99.90;;;;;;5026192;28;20068;-78
2022/10/04 07:52:47;;;;;;;20.13;15.07;;;12.70;99.90;;;;;;5018994;28;20068;-77
2022/10/04 07:55:41;;;;;;;17.25;13.48;;;12.70;99.90;;;;;;5022489;28;20065;-76
2022/10/04 07:58:34;;;;;;;21.38;14.88;;;12.80;99.90;;;;;;5004857;28;20041;-82
2022/10/04 08:01:02;;;;;;;23.85;14.82;;;12.90;99.90;;;;;;5024707;28;20041;-84
2022/10/04 08:03:54;;;;;;;16.33;12.60;;;12.90;99.90;;;;;;5028042;28;20589;-83
2022/10/04 08:06:34;;;;;;;18.85;13.38;;;13.00;99.90;;;;;;5007534;28;20372;-84
2022/10/04 08:09:21;;;;;;;20.58;13.93;;;13.10;99.90;;;;;;5025623;28;20057;-83
2022/10/04 08:12:16;;;;;;;22.30;14.18;;;13.10;99.90;;;;;;5010008;28;20045;-82
2022/10/04 08:14:50;;;;;;;22.05;14.35;;;13.10;99.90;;;;;;4990306;28;20133;-85
2022/10/04 08:17:42;;;;;;;22.65;15.27;;;13.10;99.90;;;;;;5019738;28;20234;-81
2022/10/04 08:20:22;;;;;;;21.05;14.05;;;13.20;99.90;;;;;;4987646;28;20527;-79
2022/10/04 08:23:13;;;;;;;19.88;14.55;;;13.20;99.90;;;;;;5025919;28;20132;-80
2022/10/04 08:25:57;;;;;;;23.10;15.60;;;13.20;99.90;;;;;;5027369;28;20046;-80
2022/10/04 08:32:13;;;;;;;22.00;13.65;;;13.20;99.90;;;;;;5017514;28;20041;-77
2022/10/04 08:35:04;;;;;;;17.48;12.50;;;13.30;99.90;;;;;;5026179;28;20124;-80
2022/10/04 08:38:20;;;;;;;17.20;11.30;;;13.40;99.90;;;;;;5004721;28;20049;-80
2022/10/04 08:41:06;;;;;;;19.50;12.07;;;13.50;99.90;;;;;;5024043;28;20084;-77
2022/10/04 08:44:00;;;;;;;14.95;10.90;;;13.60;99.90;;;;;;5024213;28;20100;-75
2022/10/04 08:46:39;;;;;;;16.17;11.07;;;13.70;99.90;;;;;;5012041;28;20053;-79
2022/10/04 08:49:23;;;;;;;17.70;11.40;;;13.80;99.90;;;;;;4997121;28;20053;-79
2022/10/04 08:52:06;;;;;;;16.23;10.35;;;13.80;99.90;;;;;;5017955;28;20046;-78
2022/10/04 08:55:10;;;;;;;17.40;10.82;;;13.90;99.90;;;;;;5003665;28;20053;-76
2022/10/04 08:57:42;;;;;;;19.67;11.43;;;13.90;99.90;;;;;;5006401;28;20131;-78
2022/10/04 09:00:15;;;;;;;18.20;11.27;;;13.80;99.90;;;;;;5007087;28;20088;-77
2022/10/04 09:03:11;;;;;;;16.65;11.20;;;13.80;99.90;;;;;;5006839;28;20050;-79
2022/10/04 09:05:57;;;;;;;17.97;12.07;;;13.80;99.90;;;;;;5012377;28;20157;-80
2022/10/04 09:08:56;;;;;;;15.70;11.13;;;13.90;99.90;;;;;;5006496;28;20080;-74
2022/10/04 09:11:50;;;;;;;15.02;11.02;;;14.00;99.90;;;;;;5006601;28;20073;-79
2022/10/04 09:14:41;;;;;;;18.55;10.52;;;14.00;99.90;;;;;;5007313;28;20046;-80
2022/10/04 09:17:27;;;;;;;18.17;10.75;;;14.10;99.90;;;;;;5021713;28;20061;-80
2022/10/04 09:20:05;;;;;;;16.02;10.73;;;14.20;99.90;;;;;;5010352;28;20053;-79
2022/10/04 09:22:55;;;;;;;14.63;10.63;;;14.20;99.90;;;;;;5027848;28;20057;-80
2022/10/04 09:25:30;;;;;;;19.27;10.95;;;14.30;99.90;;;;;;5002450;28;20050;-79
2022/10/04 09:28:19;;;;;;;18.65;10.80;;;14.40;99.90;;;;;;5017790;28;20062;-79
2022/10/04 09:31:07;;;;;;;14.82;9.98;;;14.40;99.90;;;;;;4992749;28;20054;-81
2022/10/04 09:33:54;;;;;;;14.80;9.60;;;14.50;99.90;;;;;;5006866;28;20125;-80
2022/10/04 09:36:27;;;;;;;16.40;9.55;;;14.50;99.90;;;;;;5015450;28;20500;-83
2022/10/04 09:39:16;;;;;;;16.45;10.45;;;14.60;99.90;;;;;;5006296;28;20050;-85
2022/10/04 09:42:13;;;;;;;16.33;9.75;;;14.70;99.90;;;;;;5005643;28;20054;-82
2022/10/04 09:44:57;;;;;;;10.63;7.18;;;14.80;99.90;;;;;;5006825;28;20536;-83
2022/10/04 09:47:39;;;;;;;12.13;7.60;;;14.80;99.90;;;;;;4997792;28;20084;-83
2022/10/04 09:50:25;;;;;;;15.63;7.68;;;14.90;99.90;;;;;;5010022;28;20528;-83
2022/10/04 09:53:25;;;;;;;13.75;7.53;;;15.00;99.90;;;;;;5027066;28;20041;-83
2022/10/04 09:56:25;;;;;;;15.18;7.93;;;15.00;99.90;;;;;;5027717;28;20084;-82
2022/10/04 09:59:31;;;;;;;14.52;7.30;;;15.10;99.90;;;;;;5005774;28;20084;-83
2022/10/04 10:01:59;;;;;;;14.85;7.90;;;15.20;99.90;;;;;;5023324;28;20037;-83
2022/10/04 10:05:05;;;;;;;15.70;7.55;;;15.30;99.90;;;;;;5027745;28;20076;-84
2022/10/04 10:07:52;;;;;;;12.70;7.70;;;15.30;99.90;;;;;;5025430;28;20284;-84
2022/10/04 10:13:49;;;;;;;14.02;7.65;;;15.40;99.90;;;;;;5030553;28;20421;-83
2022/10/04 10:16:28;;;;;;;17.63;8.20;;;15.50;99.90;;;;;;5011185;28;20466;-83
2022/10/04 10:19:15;;;;;;;10.48;6.90;;;15.50;99.90;;;;;;4992575;28;20112;-83
2022/10/04 10:22:00;;;;;;;14.10;7.90;;;15.50;99.90;;;;;;4999446;28;20682;-84
2022/10/04 10:25:03;;;;;;;13.95;7.22;;;15.60;99.90;;;;;;5011273;28;20046;-84
2022/10/04 10:27:45;;;;;;;11.30;7.03;;;15.60;99.90;;;;;;5009204;28;20454;-84
2022/10/04 10:30:48;;;;;;;10.80;7.15;;;15.70;99.90;;;;;;5011226;28;20045;-83
2022/10/04 10:33:29;;;;;;;13.85;7.28;;;15.70;99.90;;;;;;4993338;28;20474;-83
2022/10/04 10:36:33;;;;;;;11.05;6.90;;;15.80;99.90;;;;;;4992586;28;20347;-83
2022/10/04 10:39:47;;;;;;;16.08;7.50;;;15.80;99.90;;;;;;5023831;28;20045;-84
2022/10/04 10:42:26;;;;;;;12.90;7.15;;;15.90;99.90;;;;;;5017794;28;20056;-83
2022/10/04 10:45:04;;;;;;;14.40;7.13;;;16.00;99.90;;;;;;5012204;28;20064;-83
2022/10/04 10:47:30;;;;;;;13.05;6.82;;;16.00;99.90;;;;;;5011224;28;20053;-83
2022/10/04 10:50:26;;;;;;;14.52;7.15;;;16.00;99.90;;;;;;5007592;28;20132;-84
2022/10/04 10:53:28;;;;;;;12.48;7.30;;;16.10;99.90;;;;;;4991614;28;20046;-83
2022/10/04 10:56:22;;;;;;;12.27;6.70;;;16.10;99.90;;;;;;4990590;28;20748;-84
2022/10/04 10:59:11;;;;;;;9.65;6.03;;;16.10;99.90;;;;;;5008007;28;20046;-83
2022/10/04 11:02:20;;;;;;;11.40;6.50;;;16.20;99.90;;;;;;4990710;28;20054;-83
2022/10/04 11:05:18;;;;;;;12.40;6.65;;;16.20;99.90;;;;;;4994259;28;20049;-82
2022/10/04 11:07:51;;;;;;;11.18;6.35;;;16.40;99.90;;;;;;5009583;28;20046;-83
2022/10/04 11:10:45;;;;;;;13.85;6.95;;;16.40;99.90;;;;;;5009961;28;20464;-83
2022/10/04 11:13:32;;;;;;;15.30;7.07;;;16.50;99.90;;;;;;5010008;28;20049;-83
2022/10/04 11:16:13;;;;;;;10.70;6.15;;;16.50;99.90;;;;;;5009739;28;20041;-82
2022/10/04 11:18:57;;;;;;;13.57;7.45;;;16.50;99.90;;;;;;4989888;28;20195;-82
2022/10/04 11:21:44;;;;;;;11.90;6.45;;;16.60;99.90;;;;;;5008388;28;20493;-82
2022/10/04 11:24:31;;;;;;;12.65;6.68;;;16.60;99.90;;;;;;5007076;28;20037;-82
2022/10/04 11:27:09;;;;;;;13.77;6.43;;;16.70;99.90;;;;;;5008984;28;20042;-83
2022/10/04 11:29:57;;;;;;;12.68;6.85;;;16.70;99.90;;;;;;4972913;28;20053;-82
2022/10/04 11:32:44;;;;;;;12.20;6.28;;;16.80;99.90;;;;;;4990198;28;20125;-82
2022/10/04 11:35:40;;;;;;;12.13;6.63;;;16.80;99.90;;;;;;5008979;28;20042;-82
2022/10/04 11:38:14;;;;;;;12.50;6.80;;;16.80;99.90;;;;;;5006697;28;20049;-82
2022/10/04 11:40:46;;;;;;;11.48;6.32;;;16.80;99.90;;;;;;5009681;28;20038;-82
2022/10/04 11:43:40;;;;;;;9.95;5.63;;;16.80;99.90;;;;;;5010141;28;20053;-82
2022/10/04 11:46:34;;;;;;;13.25;6.20;;;16.90;99.90;;;;;;5000407;28;20054;-82
2022/10/04 11:49:07;;;;;;;11.85;5.82;;;16.90;99.90;;;;;;5007998;28;20057;-82
2022/10/04 11:51:58;;;;;;;10.57;5.97;;;16.90;99.90;;;;;;5009109;28;20038;-82
2022/10/04 11:55:01;;;;;;;11.23;5.50;;;17.00;99.90;;;;;;5010123;28;20038;-83
2022/10/04 11:57:51;;;;;;;10.45;5.05;;;17.10;99.90;;;;;;5008549;28;20130;-83
2022/10/04 12:00:20;;;;;;;9.82;4.85;;;17.10;99.90;;;;;;5007479;28;20050;-83
2022/10/04 12:03:11;;;;;;;12.70;5.32;;;17.20;99.90;;;;;;5009503;28;20170;-83
2022/10/04 12:05:37;;;;;;;11.27;4.97;;;17.20;99.90;;;;;;5008387;28;20081;-84
2022/10/04 12:08:02;;;;;;;9.05;5.10;;;17.20;99.90;;;;;;4995977;28;20204;-83
2022/10/04 12:10:44;;;;;;;7.68;4.78;;;17.30;99.90;;;;;;5014906;28;20132;-84
2022/10/04 12:13:28;;;;;;;10.38;4.95;;;17.30;99.90;;;;;;4990890;28;20050;-84
2022/10/04 12:16:34;;;;;;;9.13;4.43;;;17.30;99.90;;;;;;5005904;28;20046;-83
2022/10/04 12:19:24;;;;;;;10.13;4.10;;;17.30;99.90;;;;;;5008588;28;20042;-84
2022/10/04 12:22:23;;;;;;;9.00;4.68;;;17.40;99.90;;;;;;5007754;28;20053;-84
2022/10/04 12:25:08;;;;;;;9.63;4.85;;;17.40;99.90;;;;;;5007846;28;20509;-84
2022/10/04 12:27:58;;;;;;;9.63;4.85;;;17.50;99.90;;;;;;5001414;28;20464;-84
2022/10/04 12:30:40;;;;;;;6.75;4.03;;;17.50;99.90;;;;;;4989121;28;20046;-83
2022/10/04 12:33:44;;;;;;;9.73;4.72;;;17.50;99.90;;;;;;4996265;28;20041;-79
2022/10/04 12:36:45;;;;;;;9.77;4.88;;;17.60;99.90;;;;;;5002465;28;20050;-77
2022/10/04 12:39:46;;;;;;;8.52;4.30;;;17.60;99.90;;;;;;4976775;28;20057;-82
2022/10/04 12:42:23;;;;;;;7.40;4.68;;;17.60;99.90;;;;;;5007225;28;20081;-82
2022/10/04 12:44:52;;;;;;;;;;;17.60;99.90;;;;;;5013641;28;20459;-78
2022/10/04 12:47:47;;;;;;;11.02;4.22;;;17.60;99.90;;;;;;4999632;28;20368;-76
2022/10/04 12:50:30;;;;;;;10.95;4.47;;;17.70;99.90;;;;;;4992455;28;20109;-80
2022/10/04 12:53:30;;;;;;;10.23;4.57;;;17.70;99.90;;;;;;5001276;28;20263;-78
2022/10/04 12:56:20;;;;;;;9.25;4.20;;;17.70;99.90;;;;;;5007057;28;20042;-78
2022/10/04 12:59:01;;;;;;;8.60;4.45;;;17.70;99.90;;;;;;4997587;28;20098;-79
2022/10/04 13:01:53;;;;;;;9.27;4.75;;;17.80;99.90;;;;;;4987529;28;20054;-79
2022/10/04 13:04:22;;;;;;;10.93;4.85;;;17.80;99.90;;;;;;5008654;28;20121;-79
2022/10/04 13:07:17;;;;;;;10.63;6.00;;;17.90;99.90;;;;;;5006080;28;20746;-79
2022/10/04 13:09:55;;;;;;;9.18;5.75;;;17.90;99.90;;;;;;4990154;28;20054;-79
2022/10/04 13:12:30;;;;;;;10.75;5.85;;;17.90;99.90;;;;;;4989279;28;20057;-80
2022/10/04 13:14:57;;;;;;;9.30;6.15;;;17.80;99.90;;;;;;4999314;28;20123;-81
2022/10/04 13:17:25;;;;;;;9.57;5.88;;;17.80;99.90;;;;;;4992023;28;20121;-77
2022/10/04 13:20:16;;;;;;;10.85;6.13;;;17.80;99.90;;;;;;4998666;28;20413;-74
2022/10/04 13:23:18;;;;;;;12.15;6.53;;;17.80;99.90;;;;;;5000951;28;20104;-75
2022/10/04 13:26:14;;;;;;;13.40;6.85;;;17.90;99.90;;;;;;4988752;28;21473;-78
2022/10/04 13:29:05;;;;;;;11.88;6.18;;;17.80;99.90;;;;;;5005358;28;20041;-82
2022/10/04 13:31:34;;;;;;;11.25;6.45;;;17.90;99.90;;;;;;4982810;28;20079;-79
2022/10/04 13:34:27;;;;;;;12.68;6.75;;;17.90;99.90;;;;;;5005740;28;20050;-80
2022/10/04 13:37:01;;;;;;;10.57;6.22;;;17.90;99.90;;;;;;5000756;28;20084;-80
2022/10/04 13:39:45;;;;;;;10.63;6.88;;;18.00;99.90;;;;;;5002657;28;20061;-80
2022/10/04 13:42:19;;;;;;;13.57;6.47;;;18.00;99.90;;;;;;5010660;28;20049;-80
2022/10/04 13:45:00;;;;;;;11.30;5.72;;;17.90;99.90;;;;;;5010742;28;20053;-80
2022/10/04 13:48:04;;;;;;;9.18;5.32;;;18.00;99.90;;;;;;5010606;28;20100;-80
2022/10/04 13:50:59;;;;;;;9.88;5.70;;;17.90;99.90;;;;;;4988176;28;20095;-80
2022/10/04 13:57:02;;;;;;;13.05;7.10;;;17.80;99.90;;;;;;5011116;28;20081;-80